Time;durP1;ratioP1;P1;durP2;ratioP2;P2;SDS_P1;SDS_P2;PMS_P1;PMS_P2;Temp;Humidity;BMP_temperature;BMP_pressure;BME280_temperature;BME280_humidity;BME280_pressure;Samples;Min_cycle;Max_cycle;Signal;HPM_P1;HPM_P2
2023/02/18 00:02:03;;;;;;;18.85;2.95;;;7.60;99.90;;;;;;5112304;27;20043;-67
2023/02/18 00:04:29;;;;;;;13.25;2.40;;;7.60;99.90;;;;;;5092110;27;20509;-67
2023/02/18 00:06:54;;;;;;;14.70;2.95;;;7.60;99.90;;;;;;5122425;27;20118;-68
2023/02/18 00:09:20;;;;;;;14.57;2.47;;;7.70;99.90;;;;;;5106496;27;20038;-68
2023/02/18 00:11:46;;;;;;;14.00;2.58;;;7.70;99.90;;;;;;5109925;27;20430;-67
2023/02/18 00:14:14;;;;;;;12.60;2.25;;;7.70;99.90;;;;;;5106472;27;20043;-67
2023/02/18 00:16:41;;;;;;;15.50;3.05;;;7.70;99.90;;;;;;5103788;27;20047;-67
2023/02/18 00:19:10;;;;;;;14.35;2.58;;;7.70;99.90;;;;;;5133347;27;20057;-67
2023/02/18 00:21:37;;;;;;;16.88;2.70;;;7.80;99.90;;;;;;5103036;28;20056;-67
2023/02/18 00:24:04;;;;;;;13.80;2.55;;;7.80;99.90;;;;;;5104428;28;20035;-67
2023/02/18 00:26:31;;;;;;;14.45;3.17;;;7.80;99.90;;;;;;5106813;28;20197;-67
2023/02/18 00:28:56;;;;;;;20.33;3.20;;;7.90;99.90;;;;;;5107309;28;20038;-67
2023/02/18 00:31:28;;;;;;;16.48;2.50;;;7.80;99.90;;;;;;5086750;28;20036;-67
2023/02/18 00:33:55;;;;;;;14.02;2.88;;;7.90;99.90;;;;;;5102793;28;20044;-67
2023/02/18 00:36:22;;;;;;;13.35;2.60;;;7.80;99.90;;;;;;5103421;28;20073;-68
2023/02/18 00:38:57;;;;;;;15.77;2.92;;;7.80;99.90;;;;;;5104219;27;20039;-68
2023/02/18 00:41:24;;;;;;;;;;;7.80;99.90;;;;;;5107009;28;20064;-65
2023/02/18 00:43:50;;;;;;;14.38;2.92;;;7.80;99.90;;;;;;5102403;28;19920;-65
2023/02/18 00:46:16;;;;;;;19.17;3.80;;;7.70;99.90;;;;;;5105467;27;20126;-65
2023/02/18 00:48:42;;;;;;;16.23;3.80;;;7.80;99.90;;;;;;5105438;28;20120;-66
2023/02/18 00:51:09;;;;;;;16.10;3.38;;;7.80;99.90;;;;;;5104293;28;20772;-66
2023/02/18 00:53:35;;;;;;;20.15;4.30;;;7.80;99.90;;;;;;5099407;28;20504;-67
2023/02/18 00:56:01;;;;;;;17.58;3.30;;;7.80;99.90;;;;;;5106492;27;20031;-66
2023/02/18 00:58:27;;;;;;;18.65;4.03;;;7.80;99.90;;;;;;5106313;28;20061;-67
2023/02/18 01:00:54;;;;;;;16.75;3.45;;;7.80;99.90;;;;;;5102488;27;20468;-67
2023/02/18 01:03:21;;;;;;;20.52;4.95;;;7.90;99.90;;;;;;5099559;28;20093;-66
2023/02/18 01:05:48;;;;;;;21.52;4.20;;;7.90;99.90;;;;;;5101519;28;20746;-67
2023/02/18 01:08:15;;;;;;;22.38;4.43;;;8.00;99.90;;;;;;5105131;28;20047;-66
2023/02/18 01:10:42;;;;;;;17.42;4.70;;;8.00;99.90;;;;;;5105703;28;20069;-66
2023/02/18 01:13:08;;;;;;;19.63;5.38;;;8.00;99.90;;;;;;5102261;28;20043;-66
2023/02/18 01:15:34;;;;;;;17.40;5.03;;;8.00;99.90;;;;;;5101382;28;20066;-67
2023/02/18 01:17:59;;;;;;;19.73;5.43;;;8.00;99.90;;;;;;5104704;28;20087;-66
2023/02/18 01:20:25;;;;;;;20.45;5.22;;;8.00;99.90;;;;;;5092023;28;20521;-66
2023/02/18 01:22:51;;;;;;;25.58;6.45;;;8.00;99.90;;;;;;5099004;28;20077;-66
2023/02/18 01:25:17;;;;;;;24.42;6.85;;;8.10;99.90;;;;;;5106276;28;20038;-66
2023/02/18 01:27:43;;;;;;;22.27;6.65;;;8.00;99.90;;;;;;5120495;27;20388;-67
2023/02/18 01:30:13;;;;;;;25.88;7.03;;;8.10;99.90;;;;;;5099498;28;20058;-67
2023/02/18 01:32:38;;;;;;;21.35;7.53;;;8.10;99.90;;;;;;5102361;28;20534;-67
2023/02/18 01:35:06;;;;;;;20.92;6.90;;;8.10;99.90;;;;;;5100405;27;20039;-67
2023/02/18 01:37:32;;;;;;;23.52;6.88;;;8.10;99.90;;;;;;5100550;27;20048;-67
2023/02/18 01:39:58;;;;;;;24.92;7.25;;;8.10;99.90;;;;;;5103893;28;20408;-66
2023/02/18 01:42:26;;;;;;;25.02;6.65;;;8.10;99.90;;;;;;5101952;28;20036;-67
2023/02/18 01:44:52;;;;;;;20.70;7.88;;;8.20;99.90;;;;;;5101441;28;20535;-66
2023/02/18 01:47:18;;;;;;;25.52;8.02;;;8.20;99.90;;;;;;5105241;28;20487;-67
2023/02/18 01:49:49;;;;;;;26.42;8.45;;;8.20;99.90;;;;;;5108185;27;20043;-67
2023/02/18 01:52:19;;;;;;;26.75;7.75;;;8.20;99.90;;;;;;5081536;28;20492;-67
2023/02/18 01:54:50;;;;;;;22.35;7.25;;;8.20;99.90;;;;;;5101533;28;20360;-67
2023/02/18 01:57:30;;;;;;;19.50;6.20;;;8.30;99.90;;;;;;5102419;28;20081;-66
2023/02/18 01:59:58;;;;;;;19.30;6.78;;;8.30;99.90;;;;;;5081338;28;20036;-67
2023/02/18 02:02:27;;;;;;;19.75;6.05;;;8.30;99.90;;;;;;5101020;27;20039;-68
2023/02/18 02:04:53;;;;;;;20.80;6.32;;;8.30;99.90;;;;;;5101850;28;20043;-68
2023/02/18 02:07:24;;;;;;;20.88;5.97;;;8.40;99.90;;;;;;5104705;28;20112;-68
2023/02/18 02:09:52;;;;;;;22.73;6.85;;;8.40;99.90;;;;;;5103018;28;20040;-68
2023/02/18 02:12:29;;;;;;;20.98;6.32;;;8.40;99.90;;;;;;5108609;28;20046;-68
2023/02/18 02:15:20;;;;;;;18.58;6.60;;;8.40;99.90;;;;;;5106287;28;20482;-68
2023/02/18 02:18:04;;;;;;;21.73;5.72;;;8.40;99.90;;;;;;5121242;27;20036;-68
2023/02/18 02:21:14;;;;;;;17.47;5.77;;;8.40;99.90;;;;;;5106800;27;20055;-68
2023/02/18 02:23:58;;;;;;;20.48;6.15;;;8.50;99.90;;;;;;5049694;28;20053;-69
2023/02/18 02:26:50;;;;;;;16.55;5.43;;;8.40;99.90;;;;;;5117746;27;20051;-68
2023/02/18 02:29:39;;;;;;;17.33;5.28;;;8.50;99.90;;;;;;5108184;27;20051;-68
2023/02/18 02:32:23;;;;;;;13.30;4.38;;;8.40;99.90;;;;;;5125791;27;20085;-68
2023/02/18 02:35:23;;;;;;;15.45;4.90;;;8.50;99.90;;;;;;5122370;27;20056;-68
2023/02/18 02:38:12;;;;;;;21.83;4.50;;;8.50;99.90;;;;;;5122031;27;20096;-69
2023/02/18 02:40:45;;;;;;;15.63;4.80;;;8.50;99.90;;;;;;5102469;27;20392;-68
2023/02/18 02:43:32;;;;;;;15.07;4.50;;;8.60;99.90;;;;;;5123552;27;20490;-68
2023/02/18 02:46:24;;;;;;;15.35;4.60;;;8.50;99.90;;;;;;5121503;27;20533;-68
2023/02/18 02:49:28;;;;;;;13.88;4.30;;;8.60;99.90;;;;;;5107564;28;20540;-68
2023/02/18 02:52:21;;;;;;;15.35;4.47;;;8.60;99.90;;;;;;5105921;27;20076;-68
2023/02/18 02:54:47;;;;;;;15.45;5.40;;;8.60;99.90;;;;;;5104020;28;20043;-67
2023/02/18 02:57:13;;;;;;;14.93;4.97;;;8.60;99.90;;;;;;5108769;27;20097;-67
2023/02/18 02:59:42;;;;;;;18.45;4.82;;;8.60;99.90;;;;;;5108852;28;20073;-68
2023/02/18 03:02:42;;;;;;;17.52;4.95;;;8.70;99.90;;;;;;5105626;27;20432;-68
2023/02/18 03:05:20;;;;;;;16.75;5.50;;;8.70;99.90;;;;;;5122208;27;20379;-68
2023/02/18 03:08:22;;;;;;;17.45;5.10;;;8.70;99.90;;;;;;5107022;27;20046;-68
2023/02/18 03:10:52;;;;;;;19.17;5.68;;;8.70;99.90;;;;;;5112337;27;20409;-68
2023/02/18 03:13:46;;;;;;;15.10;6.18;;;8.70;99.90;;;;;;5121742;27;20553;-68
2023/02/18 03:16:16;;;;;;;19.40;7.40;;;8.70;99.90;;;;;;5119588;27;20037;-68
2023/02/18 03:18:56;;;;;;;21.25;7.97;;;8.70;99.90;;;;;;5104041;27;20065;-68
2023/02/18 03:21:26;;;;;;;23.17;8.35;;;8.80;99.90;;;;;;5108391;27;20054;-68
2023/02/18 03:24:05;;;;;;;23.67;11.27;;;8.80;99.90;;;;;;5121596;28;20384;-68
2023/02/18 03:26:33;;;;;;;23.17;11.63;;;8.80;99.90;;;;;;5100491;28;20406;-68
2023/02/18 03:29:02;;;;;;;27.58;12.10;;;8.80;99.90;;;;;;5124633;27;20403;-68
2023/02/18 03:31:30;;;;;;;26.48;13.25;;;8.80;99.90;;;;;;5123204;27;20485;-68
2023/02/18 03:34:01;;;;;;;35.28;15.15;;;8.80;99.90;;;;;;5084978;28;20099;-68
2023/02/18 03:36:32;;;;;;;33.67;16.63;;;8.90;99.90;;;;;;5116639;28;20427;-68
2023/02/18 03:39:33;;;;;;;35.75;16.80;;;8.90;99.90;;;;;;5108359;28;20063;-68
2023/02/18 03:42:02;;;;;;;37.15;18.75;;;9.00;99.90;;;;;;5127929;28;20476;-68
2023/02/18 03:44:29;;;;;;;39.95;20.42;;;9.00;99.90;;;;;;5082935;28;20035;-67
2023/02/18 03:46:55;;;;;;;43.75;23.13;;;9.00;99.90;;;;;;5102621;28;20040;-68
2023/02/18 03:49:21;;;;;;;44.95;24.83;;;9.00;99.90;;;;;;5125763;27;20042;-68
2023/02/18 03:51:47;;;;;;;42.78;23.80;;;9.00;99.90;;;;;;5129277;28;20051;-68
2023/02/18 03:54:13;;;;;;;46.28;26.17;;;9.10;99.90;;;;;;5107061;28;20509;-68
2023/02/18 03:56:39;;;;;;;41.30;24.90;;;9.10;99.90;;;;;;5107535;28;20598;-68
2023/02/18 03:59:05;;;;;;;48.78;25.40;;;9.10;99.90;;;;;;5106056;28;20031;-68
2023/02/18 04:01:31;;;;;;;45.78;25.55;;;9.20;99.90;;;;;;5104161;27;20114;-68
2023/02/18 04:03:56;;;;;;;47.45;26.00;;;9.20;99.90;;;;;;5091902;28;20063;-68
2023/02/18 04:06:23;;;;;;;50.83;26.42;;;9.20;99.90;;;;;;5123667;28;20038;-68
2023/02/18 04:08:49;;;;;;;46.15;26.90;;;9.20;99.90;;;;;;5105593;28;20165;-68
2023/02/18 04:11:15;;;;;;;47.03;25.98;;;9.20;99.90;;;;;;5119602;28;20046;-68
2023/02/18 04:13:41;;;;;;;43.45;26.83;;;9.20;99.90;;;;;;5105434;28;20039;-68
2023/02/18 04:16:07;;;;;;;52.22;27.08;;;9.30;99.90;;;;;;5092994;28;20126;-68
2023/02/18 04:18:33;;;;;;;46.92;27.38;;;9.30;99.90;;;;;;5126969;27;20039;-68
2023/02/18 04:20:59;;;;;;;48.90;28.23;;;9.30;99.90;;;;;;5122614;28;20126;-68
2023/02/18 04:23:25;;;;;;;48.22;26.90;;;9.30;99.90;;;;;;5120264;27;20043;-68
2023/02/18 04:25:51;;;;;;;49.55;28.75;;;9.30;99.90;;;;;;5105627;28;20043;-68
2023/02/18 04:28:17;;;;;;;49.10;29.45;;;9.30;99.90;;;;;;5095236;27;20036;-68
2023/02/18 04:30:44;;;;;;;55.20;30.63;;;9.30;99.90;;;;;;5128745;27;20095;-68
2023/02/18 04:33:09;;;;;;;49.40;30.23;;;9.30;99.90;;;;;;5125713;27;20030;-68
2023/02/18 04:35:35;;;;;;;51.20;31.30;;;9.30;99.90;;;;;;5125063;27;20125;-68
2023/02/18 04:38:02;;;;;;;53.80;30.38;;;9.30;99.90;;;;;;5106963;28;20767;-68
2023/02/18 04:40:29;;;;;;;49.42;30.50;;;9.30;99.90;;;;;;5110469;27;20077;-68
2023/02/18 04:42:56;;;;;;;55.67;30.92;;;9.40;99.90;;;;;;5094865;27;20479;-68
2023/02/18 04:45:23;;;;;;;56.08;32.33;;;9.30;99.90;;;;;;5124989;27;20122;-68
2023/02/18 04:47:49;;;;;;;59.10;31.75;;;9.40;99.90;;;;;;5110614;27;20103;-68
2023/02/18 04:50:15;;;;;;;56.45;32.63;;;9.30;99.90;;;;;;5131768;27;20043;-68
2023/02/18 04:52:40;;;;;;;65.57;35.40;;;9.40;99.90;;;;;;5109991;27;20073;-68
2023/02/18 04:55:07;;;;;;;63.47;33.47;;;9.40;99.90;;;;;;5103983;27;20074;-68
2023/02/18 04:57:33;;;;;;;60.83;34.25;;;9.30;99.90;;;;;;5132270;27;20049;-68
2023/02/18 04:59:58;;;;;;;62.63;35.33;;;9.30;99.90;;;;;;5103479;27;20070;-68
2023/02/18 05:02:24;;;;;;;59.75;33.50;;;9.30;99.90;;;;;;5111869;27;20070;-68
2023/02/18 05:04:50;;;;;;;75.72;34.72;;;9.30;99.90;;;;;;5108163;27;20097;-68
2023/02/18 05:07:16;;;;;;;68.05;35.08;;;9.30;99.90;;;;;;5109214;28;20084;-68
2023/02/18 05:09:42;;;;;;;75.93;35.42;;;9.30;99.90;;;;;;5090388;28;20357;-67
2023/02/18 05:12:07;;;;;;;76.47;34.45;;;9.30;99.90;;;;;;5121706;27;20044;-66
2023/02/18 05:14:33;;;;;;;81.20;38.67;;;9.30;99.90;;;;;;5106338;27;20049;-67
2023/02/18 05:16:59;;;;;;;93.85;38.53;;;9.30;99.90;;;;;;5108294;27;20035;-66
2023/02/18 05:19:25;;;;;;;108.45;41.00;;;9.30;99.90;;;;;;5102181;28;20049;-67
2023/02/18 05:21:50;;;;;;;100.13;39.22;;;9.30;99.90;;;;;;5114885;27;20149;-67
2023/02/18 05:24:16;;;;;;;103.65;41.05;;;9.30;99.90;;;;;;5105407;27;20360;-67
2023/02/18 05:26:42;;;;;;;132.45;41.60;;;9.30;99.90;;;;;;5103404;27;20069;-67
2023/02/18 05:29:07;;;;;;;113.88;40.78;;;9.30;99.90;;;;;;5123196;27;20028;-66
2023/02/18 05:31:33;;;;;;;115.80;39.03;;;9.30;99.90;;;;;;5119130;27;20079;-66
2023/02/18 05:33:59;;;;;;;98.88;35.45;;;9.40;99.90;;;;;;5124067;27;20073;-66
2023/02/18 05:36:25;;;;;;;95.82;34.72;;;9.40;99.90;;;;;;5095546;27;20078;-67
2023/02/18 05:38:50;;;;;;;74.07;30.42;;;9.40;99.90;;;;;;5124192;27;20055;-68
2023/02/18 05:41:16;;;;;;;72.93;28.30;;;9.40;99.90;;;;;;5108898;27;20093;-68
2023/02/18 05:46:26;;;;;;;56.63;23.52;;;9.40;99.90;;;;;;5100173;27;20096;-70
2023/02/18 05:48:52;;;;;;;51.80;22.70;;;9.40;99.90;;;;;;5109456;27;20035;-69
2023/02/18 05:51:17;;;;;;;47.75;20.60;;;9.40;99.90;;;;;;5113569;27;20098;-70
2023/02/18 05:53:43;;;;;;;49.72;19.42;;;9.40;99.90;;;;;;5109709;27;20050;-70
2023/02/18 05:56:09;;;;;;;52.22;19.77;;;9.40;99.90;;;;;;5112753;27;20061;-70
2023/02/18 05:58:35;;;;;;;42.28;17.52;;;9.40;99.90;;;;;;5089299;27;20095;-70
2023/02/18 06:01:00;;;;;;;45.35;17.17;;;9.40;99.90;;;;;;5109880;27;20050;-71
2023/02/18 06:03:26;;;;;;;41.63;16.58;;;9.40;99.90;;;;;;5102170;27;20734;-71
2023/02/18 06:05:52;;;;;;;40.20;15.45;;;9.40;99.90;;;;;;5118878;27;20104;-71
2023/02/18 06:08:20;;;;;;;36.83;15.27;;;9.50;99.90;;;;;;5092496;27;20046;-72
2023/02/18 06:10:46;;;;;;;33.78;13.88;;;9.40;99.90;;;;;;5111596;27;20035;-71
2023/02/18 06:13:12;;;;;;;27.88;12.52;;;9.40;99.90;;;;;;5099951;27;20681;-71
2023/02/18 06:15:38;;;;;;;27.75;11.68;;;9.40;99.90;;;;;;5111841;27;20162;-70
2023/02/18 06:18:05;;;;;;;32.00;11.63;;;9.50;99.90;;;;;;5078248;27;20050;-71
2023/02/18 06:20:31;;;;;;;25.15;10.77;;;9.50;99.90;;;;;;5108817;27;20090;-70
2023/02/18 06:22:57;;;;;;;19.80;8.95;;;9.50;99.90;;;;;;5127990;27;20118;-71
2023/02/18 06:25:23;;;;;;;24.75;9.55;;;9.50;99.90;;;;;;5110302;27;20114;-70
2023/02/18 06:27:49;;;;;;;19.20;8.07;;;9.50;99.90;;;;;;5109363;27;20031;-70
2023/02/18 06:30:15;;;;;;;16.77;8.23;;;9.50;99.90;;;;;;5109222;27;20107;-70
2023/02/18 06:32:40;;;;;;;17.65;7.53;;;9.50;99.90;;;;;;5111347;27;20039;-70
2023/02/18 06:35:06;;;;;;;16.60;7.47;;;9.60;99.90;;;;;;5107901;27;20489;-70
2023/02/18 06:37:33;;;;;;;15.35;7.50;;;9.60;99.90;;;;;;5106669;27;20123;-70
2023/02/18 06:39:58;;;;;;;14.45;7.43;;;9.60;99.90;;;;;;5093570;27;20035;-70
2023/02/18 06:42:24;;;;;;;14.48;7.32;;;9.60;99.90;;;;;;5125787;27;20449;-69
2023/02/18 06:44:50;;;;;;;14.98;8.40;;;9.60;99.90;;;;;;5089605;27;20036;-69
2023/02/18 06:47:15;;;;;;;19.38;9.10;;;9.60;99.90;;;;;;5105109;27;20074;-68
2023/02/18 06:49:41;;;;;;;15.80;9.10;;;9.60;99.90;;;;;;5105311;27;20035;-69
2023/02/18 06:52:07;;;;;;;16.40;10.05;;;9.70;99.90;;;;;;5123738;27;20499;-69
2023/02/18 06:54:33;;;;;;;18.77;11.38;;;9.70;99.90;;;;;;5104477;27;20083;-70
2023/02/18 06:56:58;;;;;;;16.02;11.80;;;9.70;99.90;;;;;;5109112;27;20035;-69
2023/02/18 06:59:24;;;;;;;21.17;12.68;;;9.70;99.90;;;;;;5105386;27;20395;-69
2023/02/18 07:01:50;;;;;;;21.52;13.70;;;9.80;99.90;;;;;;5110284;27;20039;-69
2023/02/18 07:04:16;;;;;;;20.55;14.43;;;9.70;99.90;;;;;;5104247;28;20034;-69
2023/02/18 07:06:42;;;;;;;22.05;15.48;;;9.80;99.90;;;;;;5112883;27;20035;-69
2023/02/18 07:09:07;;;;;;;27.27;16.45;;;9.70;99.90;;;;;;5096371;27;20049;-69
2023/02/18 07:11:33;;;;;;;19.08;16.15;;;9.70;99.90;;;;;;5111104;27;20053;-69
2023/02/18 07:13:59;;;;;;;27.13;18.13;;;9.70;99.90;;;;;;5092456;28;20039;-69
2023/02/18 07:16:25;;;;;;;27.48;19.17;;;9.70;99.90;;;;;;5108020;28;20957;-69
2023/02/18 07:18:50;;;;;;;26.50;18.92;;;9.70;99.90;;;;;;5093462;27;20046;-69
2023/02/18 07:21:16;;;;;;;28.73;19.33;;;9.80;99.90;;;;;;5098044;28;20475;-69
2023/02/18 07:23:42;;;;;;;27.77;20.00;;;9.80;99.90;;;;;;5124765;27;20046;-69
2023/02/18 07:26:13;;;;;;;32.90;20.15;;;9.80;99.90;;;;;;5104369;28;20088;-69
2023/02/18 07:28:40;;;;;;;30.08;19.30;;;9.80;99.90;;;;;;5107766;28;20084;-69
2023/02/18 07:31:06;;;;;;;27.30;18.52;;;9.80;99.90;;;;;;5089511;27;20038;-68
2023/02/18 07:33:32;;;;;;;32.95;19.13;;;9.80;99.90;;;;;;5104912;28;20091;-69
2023/02/18 07:36:00;;;;;;;28.05;19.00;;;9.80;99.90;;;;;;5104799;28;20080;-69
2023/02/18 07:38:26;;;;;;;29.95;18.98;;;9.80;99.90;;;;;;5106543;28;20078;-67
2023/02/18 07:40:53;;;;;;;25.67;18.35;;;9.80;99.90;;;;;;5102191;28;20047;-69
2023/02/18 07:43:19;;;;;;;28.10;17.98;;;9.80;99.90;;;;;;5106914;28;20046;-67
2023/02/18 07:45:45;;;;;;;28.27;18.08;;;9.80;99.90;;;;;;5123262;28;20501;-68
2023/02/18 07:48:11;;;;;;;27.60;18.27;;;9.80;99.90;;;;;;5107408;28;20038;-68
2023/02/18 07:50:42;;;;;;;25.75;15.25;;;9.80;99.90;;;;;;5101759;28;20040;-67
2023/02/18 07:53:10;;;;;;;28.80;15.65;;;9.80;99.90;;;;;;5107992;28;20082;-67
2023/02/18 07:55:48;;;;;;;25.55;12.80;;;9.80;99.90;;;;;;5105719;28;20120;-68
2023/02/18 07:58:23;;;;;;;18.35;12.13;;;9.80;99.90;;;;;;5107556;28;20115;-69
2023/02/18 08:00:50;;;;;;;21.55;13.48;;;9.80;99.90;;;;;;5098959;28;20032;-68
2023/02/18 08:03:17;;;;;;;23.63;12.20;;;9.80;99.90;;;;;;5117720;27;20487;-68
2023/02/18 08:05:43;;;;;;;22.35;11.02;;;9.80;99.90;;;;;;5110235;27;20086;-68
2023/02/18 08:08:19;;;;;;;20.38;10.07;;;9.80;99.90;;;;;;5129319;27;20066;-69
2023/02/18 08:10:45;;;;;;;26.20;10.48;;;9.80;99.90;;;;;;5111147;27;20047;-67
2023/02/18 08:13:11;;;;;;;24.00;9.73;;;9.90;99.90;;;;;;5109373;27;20035;-67
2023/02/18 08:15:37;;;;;;;21.92;10.70;;;9.90;99.90;;;;;;5108611;27;20122;-68
2023/02/18 08:18:03;;;;;;;22.58;10.50;;;9.80;99.90;;;;;;5115700;27;20039;-68
2023/02/18 08:20:29;;;;;;;14.50;9.75;;;9.90;99.90;;;;;;5109415;27;20567;-68
2023/02/18 08:22:55;;;;;;;21.10;10.07;;;9.90;99.90;;;;;;5109819;27;20170;-67
2023/02/18 08:25:21;;;;;;;18.55;9.98;;;9.90;99.90;;;;;;5129640;27;20028;-68
2023/02/18 08:27:46;;;;;;;17.27;9.80;;;9.90;99.90;;;;;;5107906;27;20043;-68
2023/02/18 08:30:13;;;;;;;16.75;9.38;;;9.90;99.90;;;;;;5087685;27;20066;-68
2023/02/18 08:32:38;;;;;;;17.70;8.50;;;9.90;99.90;;;;;;5108394;27;20168;-68
2023/02/18 08:35:06;;;;;;;17.00;9.23;;;9.90;99.90;;;;;;5109969;27;20210;-69
2023/02/18 08:37:32;;;;;;;17.52;8.43;;;9.90;99.90;;;;;;5113065;27;20066;-68
2023/02/18 08:39:58;;;;;;;16.35;8.70;;;9.90;99.90;;;;;;5112243;27;20372;-68
2023/02/18 08:42:23;;;;;;;18.27;7.40;;;9.90;99.90;;;;;;5104340;27;20036;-68
2023/02/18 08:44:49;;;;;;;20.23;8.60;;;9.90;99.90;;;;;;5111688;27;20054;-67
2023/02/18 08:47:15;;;;;;;16.33;7.80;;;9.90;99.90;;;;;;5127096;27;20076;-68
2023/02/18 08:49:41;;;;;;;12.43;8.13;;;9.80;99.90;;;;;;5102703;27;20043;-68
2023/02/18 08:52:06;;;;;;;13.18;7.45;;;9.90;99.90;;;;;;5126670;27;20043;-68
2023/02/18 08:54:32;;;;;;;15.70;7.50;;;9.90;99.90;;;;;;5108985;27;20050;-69
2023/02/18 08:56:58;;;;;;;13.52;7.03;;;9.80;99.90;;;;;;5105320;27;20039;-69
2023/02/18 08:59:24;;;;;;;16.45;7.70;;;9.80;99.90;;;;;;5113177;27;20471;-68
2023/02/18 09:01:50;;;;;;;14.50;6.80;;;9.80;99.90;;;;;;5093129;27;20587;-68
2023/02/18 09:04:16;;;;;;;16.38;6.72;;;9.80;99.90;;;;;;5113978;27;20479;-68
2023/02/18 09:06:43;;;;;;;10.73;6.50;;;9.80;99.90;;;;;;5108860;27;20046;-68
2023/02/18 09:09:09;;;;;;;18.10;6.97;;;9.80;99.90;;;;;;5101606;27;20039;-69
2023/02/18 09:11:35;;;;;;;12.43;6.30;;;9.80;99.90;;;;;;5099847;27;20046;-69
2023/02/18 09:14:01;;;;;;;12.20;5.75;;;9.80;99.90;;;;;;5106748;27;20376;-69
2023/02/18 09:16:28;;;;;;;11.68;5.55;;;9.80;99.90;;;;;;5124648;27;20034;-68
2023/02/18 09:18:54;;;;;;;12.27;5.05;;;9.80;99.90;;;;;;5103255;27;20085;-69
2023/02/18 09:21:21;;;;;;;11.25;5.45;;;9.70;99.90;;;;;;5110957;27;20242;-68
2023/02/18 09:23:48;;;;;;;10.32;4.95;;;9.70;99.90;;;;;;5104455;27;20189;-69
2023/02/18 09:26:17;;;;;;;13.57;5.35;;;9.70;99.90;;;;;;5103372;27;20039;-73
2023/02/18 09:28:43;;;;;;;17.05;5.47;;;9.70;99.90;;;;;;5109740;27;20039;-72
2023/02/18 09:31:15;;;;;;;11.55;4.80;;;9.70;99.90;;;;;;5090328;27;20035;-73
2023/02/18 09:33:52;;;;;;;16.48;5.63;;;9.60;99.90;;;;;;5089044;27;20047;-74
2023/02/18 09:36:19;;;;;;;14.45;4.90;;;9.60;99.90;;;;;;5105681;27;20156;-73
2023/02/18 09:38:45;;;;;;;13.90;4.82;;;9.50;99.90;;;;;;5109452;27;20423;-71
2023/02/18 09:41:47;;;;;;;15.45;4.97;;;9.60;99.90;;;;;;5090865;27;20043;-72
2023/02/18 09:44:24;;;;;;;17.27;4.80;;;9.60;99.90;;;;;;5112989;27;20499;-73
2023/02/18 09:46:53;;;;;;;17.33;4.20;;;9.60;99.90;;;;;;5117922;27;20028;-72
2023/02/18 09:49:33;;;;;;;23.40;3.90;;;9.60;99.90;;;;;;5107746;27;20035;-72
2023/02/18 09:52:09;;;;;;;18.25;4.03;;;9.50;99.90;;;;;;5112257;27;20043;-73
2023/02/18 09:54:35;;;;;;;11.68;3.33;;;9.50;99.90;;;;;;5107124;27;20039;-75
2023/02/18 09:57:02;;;;;;;17.33;4.15;;;9.60;99.90;;;;;;5098981;27;20040;-75
2023/02/18 09:59:29;;;;;;;15.45;2.85;;;9.50;99.90;;;;;;5108402;27;20089;-76
2023/02/18 10:01:56;;;;;;;14.85;3.53;;;9.60;99.90;;;;;;5111115;27;20044;-76
2023/02/18 10:04:35;;;;;;;14.68;3.15;;;9.50;99.90;;;;;;5121287;27;20043;-75
2023/02/18 10:07:02;;;;;;;13.82;3.40;;;9.50;99.90;;;;;;5121259;27;20029;-77
2023/02/18 10:09:33;;;;;;;19.02;3.45;;;9.50;99.90;;;;;;5106339;27;20035;-75
2023/02/18 10:12:14;;;;;;;18.42;3.47;;;9.50;99.90;;;;;;5105046;27;20418;-76
2023/02/18 10:14:50;;;;;;;15.98;2.83;;;9.50;99.90;;;;;;5104986;27;20066;-75
2023/02/18 10:17:17;;;;;;;17.20;3.67;;;9.60;99.90;;;;;;5102109;27;20345;-76
2023/02/18 10:19:46;;;;;;;14.18;3.15;;;9.60;99.90;;;;;;5105930;27;20043;-76
2023/02/18 10:22:14;;;;;;;21.00;3.05;;;9.70;99.90;;;;;;5102843;28;20072;-75
2023/02/18 10:24:59;;;;;;;15.05;2.90;;;9.70;99.90;;;;;;5107038;27;20046;-73
2023/02/18 10:27:28;;;;;;;16.98;3.35;;;9.90;99.90;;;;;;5105044;27;20031;-73
2023/02/18 10:29:57;;;;;;;20.20;2.80;;;10.00;99.90;;;;;;5106463;27;20356;-74
2023/02/18 10:32:34;;;;;;;18.42;3.25;;;10.00;99.90;;;;;;5109049;27;20074;-73
2023/02/18 10:35:18;;;;;;;14.77;2.60;;;10.10;99.90;;;;;;5098815;27;20214;-72
2023/02/18 10:38:09;;;;;;;19.05;3.28;;;10.10;99.90;;;;;;5105633;27;20104;-71
2023/02/18 10:41:03;;;;;;;12.60;2.83;;;10.10;99.90;;;;;;5105358;27;20054;-73
2023/02/18 10:43:47;;;;;;;16.65;3.22;;;10.10;99.90;;;;;;5088270;28;20071;-72
2023/02/18 10:46:22;;;;;;;13.93;2.72;;;10.10;99.90;;;;;;5104797;27;20466;-72
2023/02/18 10:49:13;;;;;;;15.68;3.22;;;10.00;99.90;;;;;;5106478;27;20043;-69
2023/02/18 10:51:46;;;;;;;21.10;3.05;;;9.90;99.90;;;;;;5099438;27;20083;-69
2023/02/18 10:54:13;;;;;;;12.90;2.60;;;10.00;99.90;;;;;;5088162;28;20046;-69
2023/02/18 10:56:50;;;;;;;21.35;3.22;;;10.00;99.90;;;;;;5106926;27;20130;-69
2023/02/18 10:59:20;;;;;;;20.83;3.25;;;10.10;99.90;;;;;;5107926;27;20047;-69
2023/02/18 11:02:12;;;;;;;14.85;2.60;;;10.10;99.90;;;;;;5103703;27;20043;-69
2023/02/18 11:04:41;;;;;;;14.43;2.75;;;10.20;99.90;;;;;;5091510;27;20043;-69
2023/02/18 11:07:24;;;;;;;14.43;3.08;;;10.30;99.90;;;;;;5100424;27;20114;-70
2023/02/18 11:09:53;;;;;;;16.92;3.38;;;10.30;99.90;;;;;;5104753;28;20039;-69
2023/02/18 11:12:23;;;;;;;19.92;2.85;;;10.40;99.90;;;;;;5098923;28;20036;-69
2023/02/18 11:15:12;;;;;;;13.60;2.13;;;10.40;99.90;;;;;;5110502;27;20035;-69
2023/02/18 11:17:39;;;;;;;12.85;2.60;;;10.40;99.90;;;;;;5104463;28;20039;-69
2023/02/18 11:20:30;;;;;;;13.07;2.75;;;10.30;99.90;;;;;;5106927;27;20107;-70
2023/02/18 11:23:05;;;;;;;13.10;2.20;;;10.40;99.90;;;;;;5095217;28;20077;-69
2023/02/18 11:25:36;;;;;;;8.45;2.33;;;10.40;99.90;;;;;;5109373;28;20047;-69
2023/02/18 11:28:24;;;;;;;16.17;2.00;;;10.50;99.90;;;;;;5103586;28;20040;-69
2023/02/18 11:30:55;;;;;;;14.10;2.00;;;10.50;99.90;;;;;;5106375;28;20044;-69
2023/02/18 11:33:30;;;;;;;14.98;2.90;;;10.50;99.90;;;;;;5102973;28;20047;-69
2023/02/18 11:35:57;;;;;;;14.13;1.92;;;10.60;99.90;;;;;;5105503;28;20224;-70
2023/02/18 11:38:36;;;;;;;10.98;1.80;;;10.60;99.90;;;;;;5109012;27;20047;-69
2023/02/18 11:41:09;;;;;;;14.23;2.70;;;10.70;99.90;;;;;;5105018;27;20052;-69
2023/02/18 11:43:40;;;;;;;13.82;2.17;;;10.70;99.90;;;;;;5110176;27;20051;-69
2023/02/18 11:46:15;;;;;;;10.90;1.98;;;10.80;99.90;;;;;;5112009;27;20371;-69
2023/02/18 11:48:40;;;;;;;;;;;10.90;99.90;;;;;;5114431;27;20039;-69
2023/02/18 11:51:15;;;;;;;10.15;2.25;;;10.90;99.90;;;;;;5108927;27;19922;-70
2023/02/18 11:53:59;;;;;;;11.70;2.20;;;11.00;99.90;;;;;;5106606;27;20517;-71
2023/02/18 11:56:29;;;;;;;11.93;2.05;;;11.00;99.90;;;;;;5095813;27;20047;-72
2023/02/18 11:58:56;;;;;;;11.30;2.33;;;11.00;99.90;;;;;;5105872;27;20043;-71
2023/02/18 12:01:45;;;;;;;12.15;2.28;;;11.00;99.90;;;;;;5109846;27;20040;-72
2023/02/18 12:04:14;;;;;;;10.00;2.00;;;11.10;99.90;;;;;;5108876;27;20044;-71
2023/02/18 12:07:06;;;;;;;9.73;2.20;;;11.10;99.90;;;;;;5109549;27;20377;-71
2023/02/18 12:09:49;;;;;;;11.38;2.10;;;11.10;99.90;;;;;;5110189;27;20066;-70
2023/02/18 12:12:23;;;;;;;9.10;2.28;;;11.20;99.90;;;;;;5109846;27;20130;-72
2023/02/18 12:14:51;;;;;;;13.15;2.58;;;11.30;99.90;;;;;;5128958;27;20043;-71
2023/02/18 12:17:38;;;;;;;11.38;1.90;;;11.30;99.90;;;;;;5122709;27;20471;-71
2023/02/18 12:20:42;;;;;;;8.63;2.40;;;11.20;99.90;;;;;;5105156;27;20060;-71
2023/02/18 12:23:20;;;;;;;14.90;2.17;;;11.20;99.90;;;;;;5103163;27;20118;-71
2023/02/18 12:26:07;;;;;;;10.50;1.98;;;11.10;99.90;;;;;;5126349;27;20063;-71
2023/02/18 12:28:39;;;;;;;12.60;2.55;;;11.20;99.90;;;;;;5102267;27;20463;-70
2023/02/18 12:31:20;;;;;;;8.52;2.20;;;11.10;99.90;;;;;;5128823;27;20464;-71
2023/02/18 12:34:03;;;;;;;10.13;2.40;;;11.20;99.90;;;;;;5121880;27;20605;-71
2023/02/18 12:37:13;;;;;;;12.18;3.05;;;11.10;99.90;;;;;;5108225;27;20356;-71
2023/02/18 12:40:16;;;;;;;8.25;1.80;;;11.10;99.90;;;;;;5105386;27;20040;-71
2023/02/18 12:43:08;;;;;;;7.53;1.67;;;11.10;99.90;;;;;;5112840;27;20046;-71
2023/02/18 12:45:40;;;;;;;7.47;2.10;;;11.10;99.90;;;;;;5106634;27;20078;-71
2023/02/18 12:48:12;;;;;;;9.82;1.65;;;11.10;99.90;;;;;;5127523;27;20495;-71
2023/02/18 12:50:37;;;;;;;8.23;1.40;;;11.20;99.90;;;;;;5122506;27;20035;-70
2023/02/18 12:53:20;;;;;;;11.07;2.20;;;11.20;99.90;;;;;;5122925;27;20478;-71
2023/02/18 12:56:00;;;;;;;10.88;2.15;;;11.30;99.90;;;;;;5106127;28;20137;-71
2023/02/18 12:59:19;;;;;;;13.25;2.13;;;11.30;99.90;;;;;;5122048;27;20047;-73
2023/02/18 13:02:13;;;;;;;8.32;1.85;;;11.30;99.90;;;;;;5021742;28;20430;-70
2023/02/18 13:04:53;;;;;;;8.70;1.80;;;11.40;99.90;;;;;;5011113;28;20535;-70
2023/02/18 13:07:19;;;;;;;8.25;1.63;;;11.40;99.90;;;;;;5100709;27;20126;-71